createdAt,value
2022-09-26T00:01:10.209Z,83.58
2022-09-26T00:03:37.312Z,83.65
2022-09-26T00:06:06.192Z,83.81
2022-09-26T00:08:33.569Z,83.30
2022-09-26T00:11:01.762Z,83.52
2022-09-26T00:13:29.649Z,83.20
2022-09-26T00:15:57.389Z,82.56
2022-09-26T00:18:24.922Z,82.89
2022-09-26T00:20:51.841Z,83.09
2022-09-26T00:23:19.053Z,83.51
2022-09-26T00:25:50.181Z,83.26
2022-09-26T00:28:18.111Z,83.22
2022-09-26T00:30:45.245Z,83.34
2022-09-26T00:33:12.321Z,83.92
2022-09-26T00:35:39.184Z,83.78
2022-09-26T00:38:06.529Z,83.81
2022-09-26T00:40:33.371Z,83.79
2022-09-26T00:43:00.053Z,83.82
2022-09-26T00:45:30.522Z,84.24
2022-09-26T00:48:06.845Z,84.10
2022-09-26T00:50:39.220Z,83.91
2022-09-26T00:53:10.461Z,83.72
2022-09-26T00:55:40.000Z,83.78
2022-09-26T00:58:14.667Z,83.81
2022-09-26T01:00:42.662Z,83.37
2022-09-26T01:03:09.663Z,83.12
2022-09-26T01:05:37.101Z,83.17
2022-09-26T01:08:04.416Z,83.34
2022-09-26T01:10:32.185Z,83.76
2022-09-26T01:13:01.558Z,84.05
2022-09-26T01:15:29.169Z,84.05
2022-09-26T01:17:56.030Z,83.90
2022-09-26T01:20:27.207Z,84.01
2022-09-26T01:23:30.946Z,84.09
2022-09-26T01:26:24.622Z,83.95
2022-09-26T01:29:21.161Z,83.69
2022-09-26T01:32:23.095Z,83.03
2022-09-26T01:34:59.532Z,83.33
2022-09-26T01:37:40.010Z,83.71
2022-09-26T01:40:10.997Z,84.16
2022-09-26T01:43:00.111Z,83.76
2022-09-26T01:45:33.596Z,83.64
2022-09-26T01:48:06.069Z,84.32
2022-09-26T01:50:44.232Z,84.27
2022-09-26T01:53:25.200Z,84.41
2022-09-26T01:56:00.104Z,84.16
2022-09-26T01:58:39.297Z,83.92
2022-09-26T02:01:10.672Z,83.61
2022-09-26T02:03:42.457Z,83.58
2022-09-26T02:06:13.171Z,83.22
2022-09-26T02:08:44.030Z,83.58
2022-09-26T02:11:15.280Z,83.26
2022-09-26T02:13:55.701Z,83.50
2022-09-26T02:16:32.161Z,83.42
2022-09-26T02:19:08.968Z,83.13
2022-09-26T02:21:35.719Z,83.25
2022-09-26T02:24:02.524Z,83.24
2022-09-26T02:26:29.519Z,82.99
2022-09-26T02:28:59.236Z,82.93
2022-09-26T02:31:30.278Z,82.56
2022-09-26T02:33:57.677Z,82.83
2022-09-26T02:36:26.708Z,82.93
2022-09-26T02:38:53.398Z,82.91
2022-09-26T02:41:51.006Z,82.54
2022-09-26T02:44:42.021Z,82.98
2022-09-26T02:47:28.293Z,82.64
2022-09-26T02:50:01.619Z,82.79
2022-09-26T02:52:49.756Z,83.58
2022-09-26T02:55:27.655Z,83.36
2022-09-26T02:58:12.602Z,83.88
2022-09-26T03:00:48.641Z,83.30
2022-09-26T03:03:33.817Z,83.43
2022-09-26T03:06:03.563Z,83.54
2022-09-26T03:08:35.054Z,83.36
2022-09-26T03:11:05.252Z,83.63
2022-09-26T03:13:38.101Z,83.35
2022-09-26T03:16:06.488Z,83.22
2022-09-26T03:18:42.152Z,82.81
2022-09-26T03:21:09.462Z,82.89
2022-09-26T03:23:37.788Z,82.61
2022-09-26T03:26:12.811Z,82.48
2022-09-26T03:28:50.336Z,83.01
2022-09-26T03:31:18.192Z,82.96
2022-09-26T03:33:52.280Z,82.78
2022-09-26T03:36:19.439Z,82.77
2022-09-26T03:38:46.223Z,82.51
2022-09-26T03:41:33.089Z,82.43
2022-09-26T03:44:07.638Z,82.57
2022-09-26T03:46:54.248Z,82.74
2022-09-26T03:49:21.323Z,82.88
2022-09-26T03:51:48.071Z,83.04
2022-09-26T03:54:14.992Z,82.95
2022-09-26T03:56:41.905Z,82.57
2022-09-26T03:59:09.229Z,82.83
2022-09-26T04:01:36.610Z,82.70
2022-09-26T04:04:03.247Z,82.54
2022-09-26T04:06:29.986Z,82.53
2022-09-26T04:08:59.096Z,83.29
2022-09-26T04:11:25.859Z,82.91
2022-09-26T04:13:53.968Z,82.74
2022-09-26T04:16:24.470Z,83.29
2022-09-26T04:19:12.428Z,82.89
2022-09-26T04:21:40.219Z,82.53
2022-09-26T04:24:14.629Z,82.55
2022-09-26T04:26:43.079Z,82.76
2022-09-26T04:29:10.341Z,82.51
2022-09-26T04:31:51.903Z,82.49
2022-09-26T04:34:27.243Z,82.26
2022-09-26T04:36:54.293Z,82.50
2022-09-26T04:39:21.101Z,82.45
2022-09-26T04:41:48.263Z,82.29
2022-09-26T04:44:15.301Z,82.42
2022-09-26T04:46:42.236Z,82.75
2022-09-26T04:49:09.788Z,82.79
2022-09-26T04:51:37.621Z,82.63
2022-09-26T04:54:04.694Z,82.54
2022-09-26T04:56:37.123Z,82.30
2022-09-26T04:59:05.637Z,82.26
2022-09-26T05:01:54.405Z,82.46
2022-09-26T05:04:27.740Z,82.44
2022-09-26T05:06:57.928Z,82.27
2022-09-26T05:09:30.760Z,82.71
2022-09-26T05:12:07.547Z,82.69
2022-09-26T05:14:36.342Z,82.68
2022-09-26T05:17:04.660Z,82.77
2022-09-26T05:19:32.952Z,82.63
2022-09-26T05:22:18.962Z,82.46
2022-09-26T05:25:04.615Z,82.88
2022-09-26T05:27:31.358Z,83.07
2022-09-26T05:29:58.287Z,83.13
2022-09-26T05:32:29.163Z,83.15
2022-09-26T05:34:56.251Z,83.78
2022-09-26T05:37:24.105Z,83.66
2022-09-26T05:40:09.548Z,84.16
2022-09-26T05:42:40.973Z,83.70
2022-09-26T05:45:08.904Z,83.91
2022-09-26T05:47:36.379Z,84.10
2022-09-26T05:50:09.979Z,84.34
2022-09-26T05:52:38.945Z,84.54
2022-09-26T05:55:07.997Z,84.42
2022-09-26T05:58:04.300Z,84.32
2022-09-26T06:00:53.614Z,84.42
2022-09-26T06:03:21.056Z,84.69
2022-09-26T06:06:13.792Z,84.39
2022-09-26T06:08:42.018Z,84.30
2022-09-26T06:11:22.691Z,84.28
2022-09-26T06:13:49.780Z,84.13
2022-09-26T06:16:19.580Z,83.71
2022-09-26T06:18:50.679Z,83.65
2022-09-26T06:21:19.375Z,82.79
2022-09-26T06:23:49.822Z,82.61
2022-09-26T06:26:27.226Z,82.14
2022-09-26T06:29:00.328Z,81.94
2022-09-26T06:31:30.054Z,81.88
2022-09-26T06:34:13.193Z,81.54
2022-09-26T06:36:51.598Z,81.35
2022-09-26T06:39:18.327Z,80.91
2022-09-26T06:41:46.490Z,80.84
2022-09-26T06:44:35.860Z,80.68
2022-09-26T06:47:29.232Z,80.76
2022-09-26T06:50:22.655Z,80.85
2022-09-26T06:52:53.243Z,80.85
2022-09-26T06:55:19.986Z,80.83
2022-09-26T06:57:46.671Z,80.82
2022-09-26T07:00:15.958Z,80.01
2022-09-26T07:03:01.887Z,79.27
2022-09-26T07:05:56.350Z,78.50
2022-09-26T07:08:37.738Z,77.95
2022-09-26T07:11:32.650Z,77.43
2022-09-26T07:14:02.329Z,75.90
2022-09-26T07:16:29.811Z,76.21
2022-09-26T07:19:17.099Z,75.87
2022-09-26T07:21:55.416Z,75.65
2022-09-26T07:24:34.289Z,74.12
2022-09-26T07:27:01.861Z,73.63
2022-09-26T07:29:29.269Z,72.86
2022-09-26T07:31:56.159Z,72.80
2022-09-26T07:34:42.965Z,70.94
2022-09-26T07:37:12.030Z,72.62
2022-09-26T07:39:38.769Z,72.85
2022-09-26T07:42:05.652Z,73.83
2022-09-26T07:47:37.960Z,72.04
2022-09-26T07:50:11.323Z,71.40
2022-09-26T07:52:56.376Z,71.10
2022-09-26T07:55:27.402Z,71.37
2022-09-26T07:58:13.718Z,70.39
2022-09-26T08:00:58.802Z,69.34
2022-09-26T08:04:01.756Z,68.50
2022-09-26T08:06:36.798Z,67.33
2022-09-26T08:09:03.476Z,67.73
2022-09-26T08:11:48.715Z,68.04
2022-09-26T08:14:32.249Z,68.68
2022-09-26T08:17:14.415Z,67.86
2022-09-26T08:19:41.230Z,67.91
2022-09-26T08:22:08.562Z,67.60
2022-09-26T08:24:35.816Z,68.42
2022-09-26T08:27:23.196Z,67.76
2022-09-26T08:29:51.166Z,65.27
2022-09-26T08:32:19.453Z,66.76
2022-09-26T08:34:47.205Z,65.86
2022-09-26T08:37:36.952Z,66.06
2022-09-26T08:40:26.964Z,64.89
2022-09-26T08:43:56.372Z,65.60
2022-09-26T08:46:51.689Z,66.20
2022-09-26T08:50:00.131Z,65.89
2022-09-26T08:52:36.231Z,65.05
2022-09-26T08:55:27.975Z,66.17
2022-09-26T08:58:05.887Z,64.50
2022-09-26T09:00:33.887Z,63.44
2022-09-26T09:03:23.373Z,65.01
2022-09-26T09:05:53.136Z,64.62
2022-09-26T09:08:23.557Z,63.36
2022-09-26T09:11:26.397Z,63.28
2022-09-26T09:14:29.886Z,63.56
2022-09-26T09:17:21.183Z,63.93
2022-09-26T09:20:16.237Z,64.19
2022-09-26T09:23:24.509Z,65.55
2022-09-26T09:27:52.370Z,64.90
2022-09-26T09:28:53.364Z,65.31
2022-09-26T09:31:20.629Z,65.65
2022-09-26T09:34:26.780Z,64.76
2022-09-26T09:37:24.127Z,63.69
2022-09-26T09:40:28.144Z,64.46
2022-09-26T09:43:05.321Z,64.16
2022-09-26T09:45:46.393Z,64.09
2022-09-26T09:48:13.409Z,63.98
2022-09-26T09:50:42.998Z,59.89
2022-09-26T09:53:37.152Z,62.79
2022-09-26T09:56:36.778Z,63.08
2022-09-26T09:59:41.551Z,61.25
2022-09-26T10:02:19.606Z,61.27
2022-09-26T10:04:52.902Z,59.02
2022-09-26T10:07:19.829Z,59.17
2022-09-26T10:10:13.810Z,58.86
2022-09-26T10:12:59.021Z,58.11
2022-09-26T10:16:01.510Z,58.55
2022-09-26T10:19:04.217Z,59.53
2022-09-26T10:21:34.516Z,58.35
2022-09-26T10:24:04.849Z,59.46
2022-09-26T10:26:49.575Z,60.55
2022-09-26T10:29:35.232Z,61.37
2022-09-26T10:32:02.629Z,60.47
2022-09-26T10:34:32.058Z,61.25
2022-09-26T10:37:20.455Z,59.92
2022-09-26T10:40:16.390Z,60.31
2022-09-26T10:42:47.190Z,59.34
2022-09-26T10:45:18.053Z,58.16
2022-09-26T10:48:08.172Z,57.96
2022-09-26T10:51:02.365Z,56.54
2022-09-26T10:53:38.675Z,55.53
2022-09-26T10:56:12.037Z,55.35
2022-09-26T10:58:42.629Z,55.16
2022-09-26T11:01:21.057Z,55.01
2022-09-26T11:03:49.449Z,56.73
2022-09-26T11:06:40.735Z,53.96
2022-09-26T11:09:30.968Z,56.11
2022-09-26T11:11:57.851Z,54.26
2022-09-26T11:14:31.294Z,56.58
2022-09-26T11:17:03.389Z,54.40
2022-09-26T11:19:35.396Z,54.18
2022-09-26T11:22:08.526Z,52.82
2022-09-26T11:24:55.158Z,54.69
2022-09-26T11:27:43.394Z,56.41
2022-09-26T11:30:15.163Z,53.29
2022-09-26T11:32:55.461Z,48.28
2022-09-26T11:36:11.074Z,51.34
2022-09-26T11:38:51.027Z,50.60
2022-09-26T11:41:44.101Z,51.14
2022-09-26T11:44:47.811Z,52.75
2022-09-26T11:47:44.908Z,50.89
2022-09-26T11:50:26.566Z,51.10
2022-09-26T11:54:00.517Z,53.28
2022-09-26T11:56:42.233Z,50.38
2022-09-26T11:59:21.399Z,52.47
2022-09-26T12:02:19.307Z,52.98
2022-09-26T12:05:13.847Z,54.50
2022-09-26T12:07:56.402Z,51.32
2022-09-26T12:10:45.351Z,55.43
2022-09-26T12:13:54.369Z,55.89
2022-09-26T12:16:37.373Z,65.92
2022-09-26T12:19:22.916Z,73.16
2022-09-26T12:22:23.303Z,73.94
2022-09-26T12:25:19.926Z,75.63
2022-09-26T12:28:02.438Z,79.19
2022-09-26T12:30:37.565Z,80.20
2022-09-26T12:33:51.173Z,79.85
2022-09-26T12:36:40.696Z,78.80
2022-09-26T12:39:24.679Z,77.92
2022-09-26T12:41:57.242Z,75.93
2022-09-26T12:44:39.087Z,78.56
2022-09-26T12:47:55.763Z,78.01
2022-09-26T12:50:29.334Z,77.48
2022-09-26T12:53:10.349Z,77.84
2022-09-26T12:55:49.016Z,77.11
2022-09-26T12:58:55.421Z,76.68
2022-09-26T13:02:10.125Z,75.19
2022-09-26T13:04:46.127Z,77.24
2022-09-26T13:07:21.380Z,78.17
2022-09-26T13:09:55.570Z,71.35
2022-09-26T13:12:50.856Z,72.34
2022-09-26T13:15:32.512Z,73.80
2022-09-26T13:18:05.300Z,70.58
2022-09-26T13:20:43.645Z,70.94
2022-09-26T13:23:27.498Z,72.14
2022-09-26T13:26:15.432Z,67.44
2022-09-26T13:29:18.019Z,65.70
2022-09-26T13:32:02.008Z,66.54
2022-09-26T13:34:39.582Z,68.42
2022-09-26T13:37:19.667Z,68.70
2022-09-26T13:40:21.301Z,69.50
2022-09-26T13:42:58.313Z,67.14
2022-09-26T13:45:43.126Z,68.99
2022-09-26T13:48:33.805Z,66.44
2022-09-26T13:51:19.336Z,65.27
2022-09-26T13:53:51.936Z,66.70
2022-09-26T13:56:34.547Z,60.58
2022-09-26T13:59:14.525Z,64.15
2022-09-26T14:02:19.009Z,59.44
2022-09-26T14:04:50.413Z,58.40
2022-09-26T14:08:06.083Z,60.95
2022-09-26T14:10:37.017Z,58.18
2022-09-26T14:13:24.961Z,59.83
2022-09-26T14:16:05.882Z,62.29
2022-09-26T14:18:45.343Z,55.69
2022-09-26T14:21:29.128Z,59.69
2022-09-26T14:24:20.725Z,57.89
2022-09-26T14:27:05.648Z,61.86
2022-09-26T14:29:32.660Z,61.32
2022-09-26T14:32:09.823Z,62.43
2022-09-26T14:34:53.355Z,57.84
2022-09-26T14:37:25.754Z,60.27
2022-09-26T14:40:13.880Z,60.45
2022-09-26T14:42:46.182Z,60.44
2022-09-26T14:45:25.068Z,59.69
2022-09-26T14:48:08.102Z,58.75
2022-09-26T14:50:44.371Z,60.58
2022-09-26T14:53:22.822Z,57.07
2022-09-26T14:56:03.341Z,57.72
2022-09-26T14:58:39.684Z,59.93
2022-09-26T15:01:18.151Z,56.12
2022-09-26T15:04:18.067Z,59.43
2022-09-26T15:07:00.334Z,60.36
2022-09-26T15:09:47.976Z,55.65
2022-09-26T15:12:27.507Z,58.58
2022-09-26T15:15:00.050Z,59.14
2022-09-26T15:17:33.940Z,58.61
2022-09-26T15:20:10.254Z,57.65
2022-09-26T15:22:37.191Z,61.35
2022-09-26T15:25:09.190Z,62.00
2022-09-26T15:27:35.842Z,61.32
2022-09-26T15:30:07.585Z,58.94
2022-09-26T15:32:34.379Z,63.23
2022-09-26T15:35:01.730Z,62.69
2022-09-26T15:37:34.607Z,65.01
2022-09-26T15:40:34.240Z,63.38
2022-09-26T15:43:10.496Z,61.31
2022-09-26T15:45:56.564Z,64.36
2022-09-26T15:48:34.581Z,61.14
2022-09-26T15:51:05.975Z,64.16
2022-09-26T15:53:42.963Z,64.52
2022-09-26T15:56:12.857Z,66.58
2022-09-26T15:58:39.425Z,65.60
2022-09-26T16:01:07.448Z,65.91
2022-09-26T16:03:37.255Z,65.08
2022-09-26T16:06:23.109Z,66.21
2022-09-26T16:09:00.538Z,65.21
2022-09-26T16:11:27.798Z,64.71
2022-09-26T16:13:56.693Z,62.57
2022-09-26T16:16:31.808Z,65.71
2022-09-26T16:19:03.820Z,66.13
2022-09-26T16:21:36.498Z,67.35
2022-09-26T16:24:26.943Z,64.42
2022-09-26T16:26:54.930Z,65.34
2022-09-26T16:29:34.782Z,65.64
2022-09-26T16:32:03.488Z,65.18
2022-09-26T16:34:31.625Z,64.95
2022-09-26T16:36:58.543Z,66.49
2022-09-26T16:39:29.970Z,65.81
2022-09-26T16:42:03.123Z,65.90
2022-09-26T16:44:42.617Z,62.69
2022-09-26T16:47:39.431Z,64.75
2022-09-26T16:50:26.773Z,65.67
2022-09-26T16:52:54.282Z,65.76
2022-09-26T16:55:21.711Z,63.55
2022-09-26T16:57:57.595Z,63.95
2022-09-26T17:00:48.781Z,65.40
2022-09-26T17:03:26.537Z,66.59
2022-09-26T17:05:55.622Z,64.60
2022-09-26T17:08:23.408Z,64.45
2022-09-26T17:10:50.089Z,65.17
2022-09-26T17:13:26.294Z,66.08
2022-09-26T17:15:55.602Z,66.09
2022-09-26T17:18:29.192Z,65.82
2022-09-26T17:20:56.892Z,66.21
2022-09-26T17:23:39.525Z,66.36
2022-09-26T17:26:07.797Z,66.46
2022-09-26T17:28:40.450Z,67.28
2022-09-26T17:31:10.019Z,66.43
2022-09-26T17:33:40.637Z,67.02
2022-09-26T17:36:11.037Z,67.14
2022-09-26T17:38:40.369Z,68.19
2022-09-26T17:41:07.001Z,69.09
2022-09-26T17:43:34.100Z,68.54
2022-09-26T17:46:01.081Z,68.71
2022-09-26T17:48:31.385Z,68.49
2022-09-26T17:51:00.662Z,69.30
2022-09-26T17:53:36.570Z,69.82
2022-09-26T17:56:06.336Z,69.93
2022-09-26T17:58:44.341Z,69.83
2022-09-26T18:01:23.743Z,69.86
2022-09-26T18:03:52.122Z,69.53
2022-09-26T18:06:19.379Z,68.92
2022-09-26T18:08:46.384Z,68.56
2022-09-26T18:11:15.751Z,69.08
2022-09-26T18:13:49.936Z,68.79
2022-09-26T18:16:16.932Z,68.89
2022-09-26T18:18:44.207Z,68.59
2022-09-26T18:21:15.709Z,68.80
2022-09-26T18:23:44.252Z,68.91
2022-09-26T18:26:31.615Z,68.75
2022-09-26T18:29:01.775Z,68.88
2022-09-26T18:31:30.115Z,68.79
2022-09-26T18:33:58.054Z,68.89
2022-09-26T18:36:25.000Z,68.95
2022-09-26T18:38:53.789Z,68.89
2022-09-26T18:41:22.110Z,68.67
2022-09-26T18:43:52.650Z,68.65
2022-09-26T18:46:19.603Z,68.61
2022-09-26T18:48:47.397Z,67.93
2022-09-26T18:51:14.497Z,68.29
2022-09-26T18:53:41.932Z,68.47
2022-09-26T18:56:28.835Z,68.79
2022-09-26T18:59:01.118Z,67.87
2022-09-26T19:01:35.902Z,67.24
2022-09-26T19:04:04.476Z,67.21
2022-09-26T19:06:35.234Z,67.24
2022-09-26T19:09:07.803Z,67.81
2022-09-26T19:11:35.205Z,67.08
2022-09-26T19:14:12.022Z,67.17
2022-09-26T19:16:38.720Z,67.26
2022-09-26T19:19:05.384Z,67.45
2022-09-26T19:21:51.076Z,66.36
2022-09-26T19:24:21.699Z,65.90
2022-09-26T19:26:53.908Z,66.07
2022-09-26T19:29:27.624Z,65.86
2022-09-26T19:31:54.545Z,65.88
2022-09-26T19:34:22.134Z,66.25
2022-09-26T19:36:50.280Z,66.43
2022-09-26T19:39:17.170Z,66.37
2022-09-26T19:41:43.832Z,65.74
2022-09-26T19:44:10.576Z,64.70
2022-09-26T19:46:37.560Z,65.82
2022-09-26T19:49:05.880Z,65.40
2022-09-26T19:51:34.377Z,64.74
2022-09-26T19:54:05.961Z,65.06
2022-09-26T19:56:33.367Z,64.72
2022-09-26T19:59:00.351Z,65.52
2022-09-26T20:01:27.529Z,66.46
2022-09-26T20:03:54.250Z,67.45
2022-09-26T20:06:23.005Z,67.22
2022-09-26T20:08:51.143Z,66.23
2022-09-26T20:11:17.805Z,66.06
2022-09-26T20:14:03.652Z,66.59
2022-09-26T20:16:34.488Z,66.58
2022-09-26T20:19:03.642Z,66.59
2022-09-26T20:21:30.729Z,66.39
2022-09-26T20:24:00.419Z,66.59
2022-09-26T20:26:29.516Z,66.33
2022-09-26T20:28:57.021Z,66.35
2022-09-26T20:31:28.078Z,65.76
2022-09-26T20:33:59.297Z,66.03
2022-09-26T20:36:30.739Z,65.90
2022-09-26T20:39:00.480Z,64.92
2022-09-26T20:41:38.812Z,64.56
2022-09-26T20:44:08.202Z,63.92
2022-09-26T20:46:37.018Z,64.16
2022-09-26T20:49:07.809Z,64.96
2022-09-26T20:51:35.178Z,65.81
2022-09-26T20:54:02.706Z,66.22
2022-09-26T20:56:29.589Z,67.44
2022-09-26T20:58:56.245Z,68.50
2022-09-26T21:01:23.030Z,70.12
2022-09-26T21:03:52.146Z,71.50
2022-09-26T21:06:21.309Z,73.38
2022-09-26T21:08:48.200Z,74.83
2022-09-26T21:11:20.095Z,74.58
2022-09-26T21:13:46.921Z,75.45
2022-09-26T21:16:14.946Z,75.70
2022-09-26T21:18:43.339Z,76.19
2022-09-26T21:21:23.256Z,74.62
2022-09-26T21:23:59.040Z,75.42
2022-09-26T21:26:27.771Z,73.51
2022-09-26T21:28:56.207Z,74.28
2022-09-26T21:31:28.648Z,70.81
2022-09-26T21:34:00.430Z,72.12
2022-09-26T21:36:34.732Z,71.88
2022-09-26T21:39:02.250Z,70.74
2022-09-26T21:41:29.447Z,70.73
2022-09-26T21:44:14.109Z,69.07
2022-09-26T21:46:40.790Z,70.09
2022-09-26T21:49:07.563Z,70.26
2022-09-26T21:51:35.358Z,71.63
2022-09-26T21:54:24.695Z,72.26
2022-09-26T21:56:55.436Z,73.64
2022-09-26T21:59:23.781Z,73.47
2022-09-26T22:01:50.504Z,74.66
2022-09-26T22:04:19.062Z,75.66
2022-09-26T22:06:45.763Z,76.33
2022-09-26T22:09:12.614Z,76.45
2022-09-26T22:11:39.849Z,76.92
2022-09-26T22:14:06.772Z,76.70
2022-09-26T22:16:33.510Z,77.87
2022-09-26T22:19:00.556Z,77.94
2022-09-26T22:21:27.689Z,78.00
2022-09-26T22:23:54.373Z,78.30
2022-09-26T22:26:21.155Z,78.55
2022-09-26T22:28:49.193Z,78.20
2022-09-26T22:31:16.239Z,78.38
2022-09-26T22:33:42.962Z,78.74
2022-09-26T22:36:09.776Z,78.68
2022-09-26T22:38:36.971Z,78.67
2022-09-26T22:41:06.306Z,78.34
2022-09-26T22:43:33.875Z,78.22
2022-09-26T22:46:08.980Z,79.86
2022-09-26T22:48:38.045Z,79.90
2022-09-26T22:51:05.260Z,79.56
2022-09-26T22:53:36.279Z,79.68
2022-09-26T22:56:05.627Z,79.55
2022-09-26T22:58:36.716Z,79.72
2022-09-26T23:01:05.526Z,79.86
2022-09-26T23:03:33.140Z,79.67
2022-09-26T23:06:00.328Z,80.04
2022-09-26T23:08:27.402Z,80.40
2022-09-26T23:10:55.523Z,80.90
2022-09-26T23:13:24.605Z,81.03
2022-09-26T23:15:51.260Z,81.50
2022-09-26T23:18:17.898Z,81.84
2022-09-26T23:20:45.044Z,81.53
2022-09-26T23:23:13.387Z,81.97
2022-09-26T23:25:47.889Z,82.26
2022-09-26T23:28:15.315Z,82.08
2022-09-26T23:30:42.604Z,82.45
2022-09-26T23:33:09.886Z,81.97
2022-09-26T23:35:36.844Z,82.21
2022-09-26T23:38:05.438Z,82.30
2022-09-26T23:40:34.341Z,82.30
2022-09-26T23:43:02.368Z,82.55
2022-09-26T23:45:29.181Z,82.54
2022-09-26T23:47:55.959Z,82.35
2022-09-26T23:50:22.652Z,82.42
2022-09-26T23:52:49.397Z,82.28
2022-09-26T23:55:16.961Z,82.52
2022-09-26T23:57:43.646Z,82.50
